Kingsville, Texas
Current Conditions -  °F | °C
As of 6:56 PM on Sunday 23 Nov 2014 (Local Time) from KNQI Reporting Station
Clear Clear  
Wind Chill: 69°   Ceiling: Unl
Heat Index: 69°   Visibility: 10mi
Dew Point: 56°   Wind: 7mph
Humidity: 63%   Direction: 200°SSW
Pressure: 29.64"   Gusts: NA
Location:  27.52°N, 97.85°W
Report Text: KNQI 240056Z 20006KT 10SM CLR 21/13 A2964 RMK AO2 SLP034 T02060133 $
Loading
Personal Weather Stations






























Interactive Weather Map New forecast layout! Learn more

10-Day Weather Forecast

Advertisements
Track Severe Weather on mobile